sensor_id;sensor_type;location;lat;lon;timestamp;P1;durP1;ratioP1;P2;durP2;ratioP2
14104;SDS011;7130;52.484;4.766;2022-07-12T00:01:54;3.17;;;2.88;;
14104;SDS011;7130;52.484;4.766;2022-07-12T00:04:21;2.60;;;2.40;;
14104;SDS011;7130;52.484;4.766;2022-07-12T00:06:50;3.17;;;2.88;;
14104;SDS011;7130;52.484;4.766;2022-07-12T00:09:17;3.00;;;2.80;;
14104;SDS011;7130;52.484;4.766;2022-07-12T00:11:44;3.33;;;3.03;;
14104;SDS011;7130;52.484;4.766;2022-07-12T00:14:11;4.17;;;3.80;;
14104;SDS011;7130;52.484;4.766;2022-07-12T00:16:38;3.78;;;3.47;;
14104;SDS011;7130;52.484;4.766;2022-07-12T00:19:05;4.57;;;4.18;;
14104;SDS011;7130;52.484;4.766;2022-07-12T00:21:33;4.15;;;3.85;;
14104;SDS011;7130;52.484;4.766;2022-07-12T00:24:02;4.13;;;3.83;;
14104;SDS011;7130;52.484;4.766;2022-07-12T00:26:29;3.95;;;3.65;;
14104;SDS011;7130;52.484;4.766;2022-07-12T00:28:56;3.53;;;3.30;;
14104;SDS011;7130;52.484;4.766;2022-07-12T00:31:23;3.00;;;2.80;;
14104;SDS011;7130;52.484;4.766;2022-07-12T00:33:50;2.22;;;2.03;;
14104;SDS011;7130;52.484;4.766;2022-07-12T00:36:18;2.90;;;2.70;;
14104;SDS011;7130;52.484;4.766;2022-07-12T00:38:45;2.43;;;2.27;;
14104;SDS011;7130;52.484;4.766;2022-07-12T00:41:13;2.50;;;2.30;;
14104;SDS011;7130;52.484;4.766;2022-07-12T00:43:41;2.83;;;2.63;;
14104;SDS011;7130;52.484;4.766;2022-07-12T00:46:08;3.50;;;3.20;;
14104;SDS011;7130;52.484;4.766;2022-07-12T00:48:35;3.17;;;2.80;;
14104;SDS011;7130;52.484;4.766;2022-07-12T00:51:03;3.10;;;2.90;;
14104;SDS011;7130;52.484;4.766;2022-07-12T00:53:30;3.42;;;3.13;;
14104;SDS011;7130;52.484;4.766;2022-07-12T00:55:57;3.75;;;3.45;;
14104;SDS011;7130;52.484;4.766;2022-07-12T00:58:26;3.97;;;3.67;;
14104;SDS011;7130;52.484;4.766;2022-07-12T01:00:54;3.30;;;3.10;;
14104;SDS011;7130;52.484;4.766;2022-07-12T01:03:22;4.00;;;3.70;;
14104;SDS011;7130;52.484;4.766;2022-07-12T01:05:49;4.40;;;4.00;;
14104;SDS011;7130;52.484;4.766;2022-07-12T01:08:16;3.70;;;3.40;;
14104;SDS011;7130;52.484;4.766;2022-07-12T01:10:44;4.40;;;4.00;;
14104;SDS011;7130;52.484;4.766;2022-07-12T01:13:11;3.50;;;3.30;;
14104;SDS011;7130;52.484;4.766;2022-07-12T01:15:40;4.07;;;3.78;;
14104;SDS011;7130;52.484;4.766;2022-07-12T01:18:07;3.75;;;3.45;;
14104;SDS011;7130;52.484;4.766;2022-07-12T01:20:36;2.90;;;2.70;;
14104;SDS011;7130;52.484;4.766;2022-07-12T01:23:04;3.60;;;3.40;;
14104;SDS011;7130;52.484;4.766;2022-07-12T01:25:32;3.00;;;2.80;;
14104;SDS011;7130;52.484;4.766;2022-07-12T01:27:59;3.67;;;3.38;;
14104;SDS011;7130;52.484;4.766;2022-07-12T01:30:26;3.20;;;3.00;;
14104;SDS011;7130;52.484;4.766;2022-07-12T01:32:53;4.40;;;4.00;;
14104;SDS011;7130;52.484;4.766;2022-07-12T01:35:20;5.05;;;4.65;;
14104;SDS011;7130;52.484;4.766;2022-07-12T01:37:48;4.50;;;4.10;;
14104;SDS011;7130;52.484;4.766;2022-07-12T01:40:16;5.03;;;4.63;;
14104;SDS011;7130;52.484;4.766;2022-07-12T01:42:45;5.37;;;4.87;;
14104;SDS011;7130;52.484;4.766;2022-07-12T01:45:12;5.50;;;5.05;;
14104;SDS011;7130;52.484;4.766;2022-07-12T01:47:39;4.85;;;4.45;;
14104;SDS011;7130;52.484;4.766;2022-07-12T01:50:07;5.70;;;5.10;;
14104;SDS011;7130;52.484;4.766;2022-07-12T01:52:34;5.85;;;5.35;;
14104;SDS011;7130;52.484;4.766;2022-07-12T01:55:02;5.13;;;4.72;;
14104;SDS011;7130;52.484;4.766;2022-07-12T01:57:30;5.53;;;5.03;;
14104;SDS011;7130;52.484;4.766;2022-07-12T02:00:00;5.80;;;5.30;;
14104;SDS011;7130;52.484;4.766;2022-07-12T02:02:28;4.95;;;4.55;;
14104;SDS011;7130;52.484;4.766;2022-07-12T02:04:56;4.80;;;4.40;;
14104;SDS011;7130;52.484;4.766;2022-07-12T02:07:24;4.35;;;4.05;;
14104;SDS011;7130;52.484;4.766;2022-07-12T02:09:51;4.80;;;4.30;;
14104;SDS011;7130;52.484;4.766;2022-07-12T02:12:19;4.40;;;4.05;;
14104;SDS011;7130;52.484;4.766;2022-07-12T02:14:47;4.82;;;4.43;;
14104;SDS011;7130;52.484;4.766;2022-07-12T02:17:15;5.70;;;5.25;;
14104;SDS011;7130;52.484;4.766;2022-07-12T02:19:42;6.00;;;5.47;;
14104;SDS011;7130;52.484;4.766;2022-07-12T02:22:09;5.40;;;4.90;;
14104;SDS011;7130;52.484;4.766;2022-07-12T02:24:36;5.83;;;5.30;;
14104;SDS011;7130;52.484;4.766;2022-07-12T02:27:03;5.28;;;4.88;;
14104;SDS011;7130;52.484;4.766;2022-07-12T02:29:31;5.47;;;4.97;;
14104;SDS011;7130;52.484;4.766;2022-07-12T02:31:59;5.05;;;4.65;;
14104;SDS011;7130;52.484;4.766;2022-07-12T02:34:27;5.28;;;4.88;;
14104;SDS011;7130;52.484;4.766;2022-07-12T02:36:55;5.00;;;4.60;;
14104;SDS011;7130;52.484;4.766;2022-07-12T02:39:22;4.53;;;4.20;;
14104;SDS011;7130;52.484;4.766;2022-07-12T02:41:49;5.23;;;4.73;;
14104;SDS011;7130;52.484;4.766;2022-07-12T02:44:16;4.85;;;4.45;;
14104;SDS011;7130;52.484;4.766;2022-07-12T02:46:43;5.10;;;4.70;;
14104;SDS011;7130;52.484;4.766;2022-07-12T02:49:12;4.78;;;4.38;;
14104;SDS011;7130;52.484;4.766;2022-07-12T02:51:39;5.07;;;4.68;;
14104;SDS011;7130;52.484;4.766;2022-07-12T02:54:06;5.68;;;4.97;;
14104;SDS011;7130;52.484;4.766;2022-07-12T02:56:33;4.47;;;4.07;;
14104;SDS011;7130;52.484;4.766;2022-07-12T02:59:00;3.80;;;3.50;;
14104;SDS011;7130;52.484;4.766;2022-07-12T03:01:27;5.18;;;3.70;;
14104;SDS011;7130;52.484;4.766;2022-07-12T03:03:54;3.55;;;3.25;;
14104;SDS011;7130;52.484;4.766;2022-07-12T03:06:23;3.35;;;3.05;;
14104;SDS011;7130;52.484;4.766;2022-07-12T03:08:50;3.80;;;3.53;;
14104;SDS011;7130;52.484;4.766;2022-07-12T03:11:17;3.83;;;3.53;;
14104;SDS011;7130;52.484;4.766;2022-07-12T03:13:44;4.53;;;4.13;;
14104;SDS011;7130;52.484;4.766;2022-07-12T03:16:11;4.22;;;3.90;;
14104;SDS011;7130;52.484;4.766;2022-07-12T03:18:39;4.93;;;4.47;;
14104;SDS011;7130;52.484;4.766;2022-07-12T03:21:06;5.65;;;5.15;;
14104;SDS011;7130;52.484;4.766;2022-07-12T03:23:35;5.17;;;4.77;;
14104;SDS011;7130;52.484;4.766;2022-07-12T03:26:02;5.60;;;5.00;;
14104;SDS011;7130;52.484;4.766;2022-07-12T03:28:29;5.28;;;4.88;;
14104;SDS011;7130;52.484;4.766;2022-07-12T03:30:56;5.03;;;4.65;;
14104;SDS011;7130;52.484;4.766;2022-07-12T03:33:23;5.78;;;5.28;;
14104;SDS011;7130;52.484;4.766;2022-07-12T03:35:50;5.27;;;4.87;;
14104;SDS011;7130;52.484;4.766;2022-07-12T03:38:17;4.90;;;4.50;;
14104;SDS011;7130;52.484;4.766;2022-07-12T03:40:46;5.70;;;4.90;;
14104;SDS011;7130;52.484;4.766;2022-07-12T03:43:13;5.57;;;5.18;;
14104;SDS011;7130;52.484;4.766;2022-07-12T03:45:40;7.82;;;7.13;;
14104;SDS011;7130;52.484;4.766;2022-07-12T03:48:08;7.10;;;6.45;;
14104;SDS011;7130;52.484;4.766;2022-07-12T03:50:35;4.80;;;4.30;;
14104;SDS011;7130;52.484;4.766;2022-07-12T03:53:02;5.07;;;4.00;;
14104;SDS011;7130;52.484;4.766;2022-07-12T03:55:29;4.00;;;3.70;;
14104;SDS011;7130;52.484;4.766;2022-07-12T03:57:57;4.82;;;4.43;;
14104;SDS011;7130;52.484;4.766;2022-07-12T04:00:24;4.40;;;4.10;;
14104;SDS011;7130;52.484;4.766;2022-07-12T04:02:52;5.10;;;4.60;;
14104;SDS011;7130;52.484;4.766;2022-07-12T04:05:19;5.28;;;4.82;;
14104;SDS011;7130;52.484;4.766;2022-07-12T04:07:50;4.77;;;4.37;;
14104;SDS011;7130;52.484;4.766;2022-07-12T04:10:18;4.90;;;4.50;;
14104;SDS011;7130;52.484;4.766;2022-07-12T04:12:45;5.50;;;4.47;;
14104;SDS011;7130;52.484;4.766;2022-07-12T04:15:13;4.80;;;4.40;;
14104;SDS011;7130;52.484;4.766;2022-07-12T04:17:40;5.30;;;4.80;;
14104;SDS011;7130;52.484;4.766;2022-07-12T04:20:08;6.07;;;5.47;;
14104;SDS011;7130;52.484;4.766;2022-07-12T04:22:36;5.70;;;5.20;;
14104;SDS011;7130;52.484;4.766;2022-07-12T04:25:04;5.75;;;5.28;;
14104;SDS011;7130;52.484;4.766;2022-07-12T04:27:31;5.80;;;5.30;;
14104;SDS011;7130;52.484;4.766;2022-07-12T04:29:58;6.00;;;5.50;;
14104;SDS011;7130;52.484;4.766;2022-07-12T04:32:27;5.88;;;5.43;;
14104;SDS011;7130;52.484;4.766;2022-07-12T04:34:54;6.03;;;5.50;;
14104;SDS011;7130;52.484;4.766;2022-07-12T04:37:21;5.60;;;5.05;;
14104;SDS011;7130;52.484;4.766;2022-07-12T04:39:48;6.30;;;5.80;;
14104;SDS011;7130;52.484;4.766;2022-07-12T04:42:15;6.30;;;5.70;;
14104;SDS011;7130;52.484;4.766;2022-07-12T04:44:42;6.18;;;5.68;;
14104;SDS011;7130;52.484;4.766;2022-07-12T04:47:09;6.13;;;5.63;;
14104;SDS011;7130;52.484;4.766;2022-07-12T04:49:38;7.10;;;6.55;;
14104;SDS011;7130;52.484;4.766;2022-07-12T04:52:05;7.45;;;6.85;;
14104;SDS011;7130;52.484;4.766;2022-07-12T04:54:32;7.03;;;6.53;;
14104;SDS011;7130;52.484;4.766;2022-07-12T04:56:59;8.13;;;7.40;;
14104;SDS011;7130;52.484;4.766;2022-07-12T04:59:27;7.73;;;7.03;;
14104;SDS011;7130;52.484;4.766;2022-07-12T05:01:54;7.88;;;7.18;;
14104;SDS011;7130;52.484;4.766;2022-07-12T05:04:21;7.88;;;7.28;;
14104;SDS011;7130;52.484;4.766;2022-07-12T05:06:49;8.50;;;7.70;;
14104;SDS011;7130;52.484;4.766;2022-07-12T05:09:17;7.97;;;7.32;;
14104;SDS011;7130;52.484;4.766;2022-07-12T05:11:44;8.00;;;7.30;;
14104;SDS011;7130;52.484;4.766;2022-07-12T05:14:12;8.90;;;8.10;;
14104;SDS011;7130;52.484;4.766;2022-07-12T05:16:39;9.20;;;8.40;;
14104;SDS011;7130;52.484;4.766;2022-07-12T05:19:06;7.97;;;7.35;;
14104;SDS011;7130;52.484;4.766;2022-07-12T05:21:33;8.32;;;7.72;;
14104;SDS011;7130;52.484;4.766;2022-07-12T05:24:02;8.40;;;7.72;;
14104;SDS011;7130;52.484;4.766;2022-07-12T05:26:29;8.05;;;7.35;;
14104;SDS011;7130;52.484;4.766;2022-07-12T05:28:57;8.88;;;8.07;;
14104;SDS011;7130;52.484;4.766;2022-07-12T05:31:24;8.83;;;8.13;;
14104;SDS011;7130;52.484;4.766;2022-07-12T05:33:52;8.93;;;8.02;;
14104;SDS011;7130;52.484;4.766;2022-07-12T05:36:19;9.47;;;8.57;;
14104;SDS011;7130;52.484;4.766;2022-07-12T05:38:47;8.05;;;7.45;;
14104;SDS011;7130;52.484;4.766;2022-07-12T05:41:15;9.30;;;8.50;;
14104;SDS011;7130;52.484;4.766;2022-07-12T05:43:42;9.55;;;8.75;;
14104;SDS011;7130;52.484;4.766;2022-07-12T05:46:10;9.88;;;9.02;;
14104;SDS011;7130;52.484;4.766;2022-07-12T05:48:37;10.93;;;10.02;;
14104;SDS011;7130;52.484;4.766;2022-07-12T05:51:04;10.45;;;9.55;;
14104;SDS011;7130;52.484;4.766;2022-07-12T05:53:49;10.48;;;9.35;;
14104;SDS011;7130;52.484;4.766;2022-07-12T05:56:17;10.55;;;9.65;;
14104;SDS011;7130;52.484;4.766;2022-07-12T05:58:45;10.73;;;9.83;;
14104;SDS011;7130;52.484;4.766;2022-07-12T06:01:12;10.75;;;9.85;;
14104;SDS011;7130;52.484;4.766;2022-07-12T06:03:39;10.50;;;9.60;;
14104;SDS011;7130;52.484;4.766;2022-07-12T06:06:07;9.90;;;9.10;;
14104;SDS011;7130;52.484;4.766;2022-07-12T06:08:34;11.55;;;10.50;;
14104;SDS011;7130;52.484;4.766;2022-07-12T06:11:01;12.70;;;11.63;;
14104;SDS011;7130;52.484;4.766;2022-07-12T06:13:29;11.70;;;10.75;;
14104;SDS011;7130;52.484;4.766;2022-07-12T06:15:56;12.90;;;11.80;;
14104;SDS011;7130;52.484;4.766;2022-07-12T06:18:24;13.73;;;12.63;;
14104;SDS011;7130;52.484;4.766;2022-07-12T06:20:51;12.32;;;11.32;;
14104;SDS011;7130;52.484;4.766;2022-07-12T06:23:19;12.68;;;11.68;;
14104;SDS011;7130;52.484;4.766;2022-07-12T06:25:46;13.15;;;11.98;;
14104;SDS011;7130;52.484;4.766;2022-07-12T06:28:13;12.98;;;11.93;;
14104;SDS011;7130;52.484;4.766;2022-07-12T06:30:42;13.05;;;11.98;;
14104;SDS011;7130;52.484;4.766;2022-07-12T06:33:09;12.88;;;11.88;;
14104;SDS011;7130;52.484;4.766;2022-07-12T06:35:36;14.63;;;13.53;;
14104;SDS011;7130;52.484;4.766;2022-07-12T06:38:03;14.10;;;13.00;;
14104;SDS011;7130;52.484;4.766;2022-07-12T06:40:30;12.73;;;11.75;;
14104;SDS011;7130;52.484;4.766;2022-07-12T06:42:57;12.63;;;11.73;;
14104;SDS011;7130;52.484;4.766;2022-07-12T06:45:25;13.13;;;12.02;;
14104;SDS011;7130;52.484;4.766;2022-07-12T06:47:53;13.32;;;12.18;;
14104;SDS011;7130;52.484;4.766;2022-07-12T06:50:20;13.82;;;12.73;;
14104;SDS011;7130;52.484;4.766;2022-07-12T06:52:48;13.02;;;11.77;;
14104;SDS011;7130;52.484;4.766;2022-07-12T06:55:15;14.07;;;12.98;;
14104;SDS011;7130;52.484;4.766;2022-07-12T06:57:42;10.48;;;9.57;;
14104;SDS011;7130;52.484;4.766;2022-07-12T07:00:09;10.50;;;9.63;;
14104;SDS011;7130;52.484;4.766;2022-07-12T07:02:37;10.80;;;9.90;;
14104;SDS011;7130;52.484;4.766;2022-07-12T07:05:06;13.27;;;12.27;;
14104;SDS011;7130;52.484;4.766;2022-07-12T07:07:36;10.35;;;9.38;;
14104;SDS011;7130;52.484;4.766;2022-07-12T07:10:03;9.95;;;9.25;;
14104;SDS011;7130;52.484;4.766;2022-07-12T07:12:30;9.30;;;8.40;;
14104;SDS011;7130;52.484;4.766;2022-07-12T07:14:57;9.57;;;8.68;;
14104;SDS011;7130;52.484;4.766;2022-07-12T07:17:24;10.35;;;9.45;;
14104;SDS011;7130;52.484;4.766;2022-07-12T07:19:51;8.40;;;7.70;;
14104;SDS011;7130;52.484;4.766;2022-07-12T07:22:20;7.20;;;6.60;;
14104;SDS011;7130;52.484;4.766;2022-07-12T07:24:47;9.95;;;9.07;;
14104;SDS011;7130;52.484;4.766;2022-07-12T07:27:15;9.48;;;8.38;;
14104;SDS011;7130;52.484;4.766;2022-07-12T07:29:42;9.38;;;8.57;;
14104;SDS011;7130;52.484;4.766;2022-07-12T07:32:26;7.55;;;6.90;;
14104;SDS011;7130;52.484;4.766;2022-07-12T07:34:53;9.13;;;8.30;;
14104;SDS011;7130;52.484;4.766;2022-07-12T07:37:22;7.83;;;7.07;;
14104;SDS011;7130;52.484;4.766;2022-07-12T07:39:49;8.50;;;7.70;;
14104;SDS011;7130;52.484;4.766;2022-07-12T07:42:16;8.37;;;7.67;;
14104;SDS011;7130;52.484;4.766;2022-07-12T07:44:43;9.35;;;8.55;;
14104;SDS011;7130;52.484;4.766;2022-07-12T07:47:11;8.25;;;7.55;;
14104;SDS011;7130;52.484;4.766;2022-07-12T07:49:38;6.30;;;5.80;;
14104;SDS011;7130;52.484;4.766;2022-07-12T07:52:05;6.47;;;5.82;;
14104;SDS011;7130;52.484;4.766;2022-07-12T07:54:34;5.88;;;5.40;;
14104;SDS011;7130;52.484;4.766;2022-07-12T07:57:01;5.53;;;5.00;;
14104;SDS011;7130;52.484;4.766;2022-07-12T07:59:28;6.05;;;5.55;;
14104;SDS011;7130;52.484;4.766;2022-07-12T08:01:55;7.10;;;6.50;;
14104;SDS011;7130;52.484;4.766;2022-07-12T08:04:22;7.63;;;7.03;;
14104;SDS011;7130;52.484;4.766;2022-07-12T08:06:50;9.52;;;7.28;;
14104;SDS011;7130;52.484;4.766;2022-07-12T08:09:17;7.15;;;6.45;;
14104;SDS011;7130;52.484;4.766;2022-07-12T08:11:45;6.70;;;6.13;;
14104;SDS011;7130;52.484;4.766;2022-07-12T08:14:12;6.55;;;5.93;;
14104;SDS011;7130;52.484;4.766;2022-07-12T08:16:39;6.93;;;6.43;;
14104;SDS011;7130;52.484;4.766;2022-07-12T08:19:06;6.05;;;5.53;;
14104;SDS011;7130;52.484;4.766;2022-07-12T08:21:34;6.38;;;5.78;;
14104;SDS011;7130;52.484;4.766;2022-07-12T08:24:01;5.50;;;4.93;;
14104;SDS011;7130;52.484;4.766;2022-07-12T08:26:28;6.78;;;5.80;;
14104;SDS011;7130;52.484;4.766;2022-07-12T08:28:57;5.65;;;5.15;;
14104;SDS011;7130;52.484;4.766;2022-07-12T08:31:24;4.10;;;3.80;;
14104;SDS011;7130;52.484;4.766;2022-07-12T08:33:51;6.13;;;5.60;;
14104;SDS011;7130;52.484;4.766;2022-07-12T08:36:18;5.13;;;4.65;;
14104;SDS011;7130;52.484;4.766;2022-07-12T08:38:45;5.40;;;5.00;;
14104;SDS011;7130;52.484;4.766;2022-07-12T08:41:12;8.05;;;5.45;;
14104;SDS011;7130;52.484;4.766;2022-07-12T08:43:40;7.07;;;6.47;;
14104;SDS011;7130;52.484;4.766;2022-07-12T08:46:09;6.40;;;5.82;;
14104;SDS011;7130;52.484;4.766;2022-07-12T08:48:37;7.30;;;6.70;;
14104;SDS011;7130;52.484;4.766;2022-07-12T08:51:04;8.17;;;7.40;;
14104;SDS011;7130;52.484;4.766;2022-07-12T08:53:32;7.60;;;7.00;;
14104;SDS011;7130;52.484;4.766;2022-07-12T08:55:59;7.43;;;6.72;;
14104;SDS011;7130;52.484;4.766;2022-07-12T08:58:26;7.13;;;6.53;;
14104;SDS011;7130;52.484;4.766;2022-07-12T09:00:54;7.63;;;6.70;;
14104;SDS011;7130;52.484;4.766;2022-07-12T09:03:22;7.28;;;6.68;;
14104;SDS011;7130;52.484;4.766;2022-07-12T09:05:50;7.00;;;6.40;;
14104;SDS011;7130;52.484;4.766;2022-07-12T09:08:18;5.20;;;4.70;;
14104;SDS011;7130;52.484;4.766;2022-07-12T09:10:52;7.50;;;6.80;;
14104;SDS011;7130;52.484;4.766;2022-07-12T09:13:19;6.85;;;6.25;;
14104;SDS011;7130;52.484;4.766;2022-07-12T09:15:47;5.93;;;5.28;;
14104;SDS011;7130;52.484;4.766;2022-07-12T09:18:16;7.53;;;5.03;;
14104;SDS011;7130;52.484;4.766;2022-07-12T09:20:52;8.15;;;6.25;;
14104;SDS011;7130;52.484;4.766;2022-07-12T09:23:20;5.95;;;5.45;;
14104;SDS011;7130;52.484;4.766;2022-07-12T09:25:47;9.07;;;8.27;;
14104;SDS011;7130;52.484;4.766;2022-07-12T09:28:15;8.98;;;7.35;;
14104;SDS011;7130;52.484;4.766;2022-07-12T09:30:52;6.80;;;6.20;;
14104;SDS011;7130;52.484;4.766;2022-07-12T09:33:20;7.30;;;6.70;;
14104;SDS011;7130;52.484;4.766;2022-07-12T09:36:06;9.55;;;8.70;;
14104;SDS011;7130;52.484;4.766;2022-07-12T09:38:34;9.40;;;8.57;;
14104;SDS011;7130;52.484;4.766;2022-07-12T09:41:02;8.95;;;8.05;;
14104;SDS011;7130;52.484;4.766;2022-07-12T09:43:31;10.70;;;9.50;;
14104;SDS011;7130;52.484;4.766;2022-07-12T09:45:58;10.37;;;8.93;;
14104;SDS011;7130;52.484;4.766;2022-07-12T09:48:26;11.45;;;9.82;;
14104;SDS011;7130;52.484;4.766;2022-07-12T09:50:54;9.15;;;8.25;;
14104;SDS011;7130;52.484;4.766;2022-07-12T09:53:28;9.07;;;8.30;;
14104;SDS011;7130;52.484;4.766;2022-07-12T09:55:56;11.38;;;10.27;;
14104;SDS011;7130;52.484;4.766;2022-07-12T09:58:25;11.20;;;10.20;;
14104;SDS011;7130;52.484;4.766;2022-07-12T10:00:54;11.85;;;10.75;;
14104;SDS011;7130;52.484;4.766;2022-07-12T10:03:22;12.40;;;11.30;;
14104;SDS011;7130;52.484;4.766;2022-07-12T10:05:51;12.40;;;10.38;;
14104;SDS011;7130;52.484;4.766;2022-07-12T10:08:19;11.67;;;10.50;;
14104;SDS011;7130;52.484;4.766;2022-07-12T10:10:48;9.48;;;8.65;;
14104;SDS011;7130;52.484;4.766;2022-07-12T10:13:16;10.90;;;9.90;;
14104;SDS011;7130;52.484;4.766;2022-07-12T10:15:43;11.73;;;10.57;;
14104;SDS011;7130;52.484;4.766;2022-07-12T10:18:15;9.20;;;8.50;;
14104;SDS011;7130;52.484;4.766;2022-07-12T10:20:43;11.68;;;10.60;;
14104;SDS011;7130;52.484;4.766;2022-07-12T10:25:57;9.90;;;8.77;;
14104;SDS011;7130;52.484;4.766;2022-07-12T10:31:07;12.02;;;10.82;;
14104;SDS011;7130;52.484;4.766;2022-07-12T10:33:34;7.72;;;7.00;;
14104;SDS011;7130;52.484;4.766;2022-07-12T10:36:02;8.30;;;7.53;;
14104;SDS011;7130;52.484;4.766;2022-07-12T10:38:31;10.03;;;9.00;;
14104;SDS011;7130;52.484;4.766;2022-07-12T10:41:05;10.40;;;9.40;;
14104;SDS011;7130;52.484;4.766;2022-07-12T10:43:42;7.72;;;6.68;;
14104;SDS011;7130;52.484;4.766;2022-07-12T10:46:26;6.88;;;6.18;;
14104;SDS011;7130;52.484;4.766;2022-07-12T10:51:39;8.50;;;7.70;;
14104;SDS011;7130;52.484;4.766;2022-07-12T10:56:56;8.65;;;7.85;;
14104;SDS011;7130;52.484;4.766;2022-07-12T10:59:23;10.00;;;9.07;;
14104;SDS011;7130;52.484;4.766;2022-07-12T11:01:53;6.80;;;6.10;;
14104;SDS011;7130;52.484;4.766;2022-07-12T11:04:21;7.22;;;6.40;;
14104;SDS011;7130;52.484;4.766;2022-07-12T11:06:49;5.32;;;4.82;;
14104;SDS011;7130;52.484;4.766;2022-07-12T11:09:20;8.25;;;7.45;;
14104;SDS011;7130;52.484;4.766;2022-07-12T11:11:48;5.03;;;4.57;;
14104;SDS011;7130;52.484;4.766;2022-07-12T11:14:21;6.70;;;5.87;;
14104;SDS011;7130;52.484;4.766;2022-07-12T11:16:49;6.35;;;5.20;;
14104;SDS011;7130;52.484;4.766;2022-07-12T11:19:20;6.38;;;5.78;;
14104;SDS011;7130;52.484;4.766;2022-07-12T11:21:47;4.43;;;4.03;;
14104;SDS011;7130;52.484;4.766;2022-07-12T11:24:20;4.97;;;4.30;;
14104;SDS011;7130;52.484;4.766;2022-07-12T11:26:47;7.22;;;6.60;;
14104;SDS011;7130;52.484;4.766;2022-07-12T11:29:15;6.85;;;6.15;;
14104;SDS011;7130;52.484;4.766;2022-07-12T11:31:44;11.27;;;10.27;;
14104;SDS011;7130;52.484;4.766;2022-07-12T11:34:19;9.10;;;8.18;;
14104;SDS011;7130;52.484;4.766;2022-07-12T11:36:46;9.45;;;8.65;;
14104;SDS011;7130;52.484;4.766;2022-07-12T11:39:13;9.50;;;7.25;;
14104;SDS011;7130;52.484;4.766;2022-07-12T11:41:53;9.25;;;8.35;;
14104;SDS011;7130;52.484;4.766;2022-07-12T11:44:21;9.82;;;9.00;;
14104;SDS011;7130;52.484;4.766;2022-07-12T11:46:50;10.23;;;9.33;;
14104;SDS011;7130;52.484;4.766;2022-07-12T11:49:18;10.20;;;9.20;;
14104;SDS011;7130;52.484;4.766;2022-07-12T11:51:45;9.00;;;8.10;;
14104;SDS011;7130;52.484;4.766;2022-07-12T11:54:12;9.48;;;8.48;;
14104;SDS011;7130;52.484;4.766;2022-07-12T11:56:39;10.07;;;9.18;;
14104;SDS011;7130;52.484;4.766;2022-07-12T11:59:06;8.73;;;7.68;;
14104;SDS011;7130;52.484;4.766;2022-07-12T12:01:34;8.65;;;7.95;;
14104;SDS011;7130;52.484;4.766;2022-07-12T12:04:03;8.05;;;7.35;;
14104;SDS011;7130;52.484;4.766;2022-07-12T12:06:30;6.30;;;5.20;;
14104;SDS011;7130;52.484;4.766;2022-07-12T12:09:04;8.30;;;6.30;;
14104;SDS011;7130;52.484;4.766;2022-07-12T12:11:31;10.68;;;9.68;;
14104;SDS011;7130;52.484;4.766;2022-07-12T12:13:58;8.13;;;7.32;;
14104;SDS011;7130;52.484;4.766;2022-07-12T12:16:26;8.05;;;7.25;;
14104;SDS011;7130;52.484;4.766;2022-07-12T12:18:59;8.45;;;7.75;;
14104;SDS011;7130;52.484;4.766;2022-07-12T12:21:29;8.55;;;7.75;;
14104;SDS011;7130;52.484;4.766;2022-07-12T12:24:08;9.07;;;8.10;;
14104;SDS011;7130;52.484;4.766;2022-07-12T12:26:35;9.00;;;8.10;;
14104;SDS011;7130;52.484;4.766;2022-07-12T12:29:02;9.82;;;8.82;;
14104;SDS011;7130;52.484;4.766;2022-07-12T12:31:30;9.73;;;8.82;;
14104;SDS011;7130;52.484;4.766;2022-07-12T12:33:57;9.30;;;8.40;;
14104;SDS011;7130;52.484;4.766;2022-07-12T12:36:26;9.50;;;8.70;;
14104;SDS011;7130;52.484;4.766;2022-07-12T12:38:55;9.90;;;9.00;;
14104;SDS011;7130;52.484;4.766;2022-07-12T12:41:23;9.98;;;9.02;;
14104;SDS011;7130;52.484;4.766;2022-07-12T12:43:57;10.73;;;9.70;;
14104;SDS011;7130;52.484;4.766;2022-07-12T12:49:06;10.05;;;9.05;;
14104;SDS011;7130;52.484;4.766;2022-07-12T12:51:42;12.50;;;9.85;;
14104;SDS011;7130;52.484;4.766;2022-07-12T12:54:31;12.33;;;11.13;;
14104;SDS011;7130;52.484;4.766;2022-07-12T12:56:58;11.38;;;9.88;;
14104;SDS011;7130;52.484;4.766;2022-07-12T12:59:28;12.07;;;10.90;;
14104;SDS011;7130;52.484;4.766;2022-07-12T13:01:55;13.43;;;12.13;;
14104;SDS011;7130;52.484;4.766;2022-07-12T13:04:22;14.82;;;13.52;;
14104;SDS011;7130;52.484;4.766;2022-07-12T13:07:00;15.60;;;14.10;;
14104;SDS011;7130;52.484;4.766;2022-07-12T13:09:28;16.13;;;14.43;;
14104;SDS011;7130;52.484;4.766;2022-07-12T13:11:57;16.23;;;14.63;;
14104;SDS011;7130;52.484;4.766;2022-07-12T13:14:25;15.15;;;13.73;;
14104;SDS011;7130;52.484;4.766;2022-07-12T13:16:52;16.50;;;15.00;;
14104;SDS011;7130;52.484;4.766;2022-07-12T13:19:19;15.47;;;13.97;;
14104;SDS011;7130;52.484;4.766;2022-07-12T13:21:49;15.32;;;14.00;;
14104;SDS011;7130;52.484;4.766;2022-07-12T13:24:42;15.85;;;14.40;;
14104;SDS011;7130;52.484;4.766;2022-07-12T13:27:10;14.80;;;13.20;;
14104;SDS011;7130;52.484;4.766;2022-07-12T13:29:38;14.30;;;13.00;;
14104;SDS011;7130;52.484;4.766;2022-07-12T13:32:05;13.10;;;11.85;;
14104;SDS011;7130;52.484;4.766;2022-07-12T13:34:32;12.15;;;10.90;;
14104;SDS011;7130;52.484;4.766;2022-07-12T13:37:12;13.02;;;11.82;;
14104;SDS011;7130;52.484;4.766;2022-07-12T13:39:39;12.90;;;10.63;;
14104;SDS011;7130;52.484;4.766;2022-07-12T13:42:26;12.32;;;11.20;;
14104;SDS011;7130;52.484;4.766;2022-07-12T13:44:53;12.50;;;11.23;;
14104;SDS011;7130;52.484;4.766;2022-07-12T13:47:23;13.17;;;11.87;;
14104;SDS011;7130;52.484;4.766;2022-07-12T13:49:50;14.23;;;11.55;;
14104;SDS011;7130;52.484;4.766;2022-07-12T13:52:18;11.68;;;10.48;;
14104;SDS011;7130;52.484;4.766;2022-07-12T13:54:47;10.45;;;9.45;;
14104;SDS011;7130;52.484;4.766;2022-07-12T13:57:14;9.60;;;8.27;;
14104;SDS011;7130;52.484;4.766;2022-07-12T13:59:43;11.70;;;9.70;;
14104;SDS011;7130;52.484;4.766;2022-07-12T14:02:10;9.43;;;8.10;;
14104;SDS011;7130;52.484;4.766;2022-07-12T14:07:11;8.77;;;7.95;;
14104;SDS011;7130;52.484;4.766;2022-07-12T14:09:38;9.85;;;7.63;;
14104;SDS011;7130;52.484;4.766;2022-07-12T14:12:10;10.88;;;8.95;;
14104;SDS011;7130;52.484;4.766;2022-07-12T14:14:39;8.60;;;7.80;;
14104;SDS011;7130;52.484;4.766;2022-07-12T14:30:24;5.10;;;4.60;;
14104;SDS011;7130;52.484;4.766;2022-07-12T14:32:52;4.53;;;4.00;;
14104;SDS011;7130;52.484;4.766;2022-07-12T15:03:30;5.75;;;4.53;;
14104;SDS011;7130;52.484;4.766;2022-07-12T15:06:02;4.50;;;4.10;;
14104;SDS011;7130;52.484;4.766;2022-07-12T15:08:29;5.32;;;3.63;;
14104;SDS011;7130;52.484;4.766;2022-07-12T15:10:57;3.67;;;3.03;;
14104;SDS011;7130;52.484;4.766;2022-07-12T15:13:24;4.22;;;2.90;;
14104;SDS011;7130;52.484;4.766;2022-07-12T15:15:51;4.15;;;3.72;;
14104;SDS011;7130;52.484;4.766;2022-07-12T15:18:18;4.60;;;4.07;;
14104;SDS011;7130;52.484;4.766;2022-07-12T15:20:47;6.57;;;4.80;;
14104;SDS011;7130;52.484;4.766;2022-07-12T15:23:14;5.63;;;4.28;;
14104;SDS011;7130;52.484;4.766;2022-07-12T15:25:41;6.00;;;4.78;;
14104;SDS011;7130;52.484;4.766;2022-07-12T15:28:08;5.55;;;4.05;;
14104;SDS011;7130;52.484;4.766;2022-07-12T15:30:35;4.85;;;4.07;;
14104;SDS011;7130;52.484;4.766;2022-07-12T15:33:02;6.80;;;4.00;;
14104;SDS011;7130;52.484;4.766;2022-07-12T15:35:29;4.43;;;4.03;;
14104;SDS011;7130;52.484;4.766;2022-07-12T15:37:58;4.47;;;4.07;;
14104;SDS011;7130;52.484;4.766;2022-07-12T15:40:25;4.97;;;3.78;;
14104;SDS011;7130;52.484;4.766;2022-07-12T15:42:52;4.88;;;3.83;;
14104;SDS011;7130;52.484;4.766;2022-07-12T15:45:19;6.55;;;3.95;;
14104;SDS011;7130;52.484;4.766;2022-07-12T15:47:47;5.70;;;4.03;;
14104;SDS011;7130;52.484;4.766;2022-07-12T15:50:14;5.87;;;4.10;;
14104;SDS011;7130;52.484;4.766;2022-07-12T15:52:41;4.72;;;4.13;;
14104;SDS011;7130;52.484;4.766;2022-07-12T15:55:27;5.22;;;4.10;;
14104;SDS011;7130;52.484;4.766;2022-07-12T15:57:54;3.70;;;3.28;;
14104;SDS011;7130;52.484;4.766;2022-07-12T16:00:21;4.90;;;4.32;;